createdAt,value
2022-12-01T00:00:47.419Z,96767.22
2022-12-01T00:01:49.032Z,96764.69
2022-12-01T00:02:50.755Z,96773.97
2022-12-01T00:03:52.484Z,96777.72
2022-12-01T00:04:54.069Z,96780.22
2022-12-01T00:06:07.207Z,96774.28
2022-12-01T00:07:08.816Z,96769.88
2022-12-01T00:08:10.370Z,96771.91
2022-12-01T00:09:30.638Z,96773.97
2022-12-01T00:10:33.692Z,96776.00
2022-12-01T00:11:36.184Z,96778.19
2022-12-01T00:12:43.524Z,96774.75
2022-12-01T00:13:45.126Z,96782.41
2022-12-01T00:14:54.763Z,96780.84
2022-12-01T00:15:56.310Z,96777.09
2022-12-01T00:16:57.933Z,96779.75
2022-12-01T00:17:59.546Z,96781.47
2022-12-01T00:19:01.178Z,96772.03
2022-12-01T00:20:02.806Z,96782.19
2022-12-01T00:21:04.418Z,96787.31
2022-12-01T00:22:05.955Z,96782.63
2022-12-01T00:23:07.602Z,96785.00
2022-12-01T00:24:10.608Z,96783.28
2022-12-01T00:25:13.951Z,96783.56
2022-12-01T00:26:17.608Z,96777.16
2022-12-01T00:27:19.158Z,96779.19
2022-12-01T00:28:20.710Z,96784.50
2022-12-01T00:29:22.252Z,96787.94
2022-12-01T00:30:23.775Z,96778.81
2022-12-01T00:31:26.549Z,96790.28
2022-12-01T00:32:30.968Z,96784.13
2022-12-01T00:33:32.581Z,96776.56
2022-12-01T00:34:35.069Z,96783.47
2022-12-01T00:35:36.582Z,96781.59
2022-12-01T00:36:38.337Z,96780.81
2022-12-01T00:37:40.213Z,96779.88
2022-12-01T00:38:41.886Z,96781.25
2022-12-01T00:39:43.387Z,96783.63
2022-12-01T00:40:45.071Z,96783.47
2022-12-01T00:41:46.697Z,96774.97
2022-12-01T00:42:48.226Z,96776.84
2022-12-01T00:43:50.299Z,96782.03
2022-12-01T00:44:51.953Z,96778.34
2022-12-01T00:45:53.569Z,96781.97
2022-12-01T00:46:55.151Z,96778.97
2022-12-01T00:47:56.678Z,96784.13
2022-12-01T00:48:58.253Z,96771.31
2022-12-01T00:49:59.789Z,96776.78
2022-12-01T00:51:01.659Z,96779.16
2022-12-01T00:52:03.433Z,96769.88
2022-12-01T00:53:04.971Z,96766.13
2022-12-01T00:54:06.538Z,96773.03
2022-12-01T00:55:08.416Z,96768.50
2022-12-01T00:56:10.198Z,96778.88
2022-12-01T00:57:12.055Z,96765.41
2022-12-01T00:58:13.609Z,96766.00
2022-12-01T00:59:15.144Z,96763.03
2022-12-01T01:00:17.268Z,96766.50
2022-12-01T01:01:19.429Z,96762.91
2022-12-01T01:02:21.162Z,96763.88
2022-12-01T01:03:22.719Z,96761.50
2022-12-01T01:04:25.082Z,96765.13
2022-12-01T01:05:26.649Z,96770.72
2022-12-01T01:06:28.317Z,96765.06
2022-12-01T01:07:30.760Z,96768.81
2022-12-01T01:08:32.533Z,96762.88
2022-12-01T01:09:34.177Z,96757.88
2022-12-01T01:10:44.130Z,96757.91
2022-12-01T01:11:45.687Z,96754.91
2022-12-01T01:12:47.270Z,96759.16
2022-12-01T01:13:48.934Z,96748.81
2022-12-01T01:14:50.491Z,96753.69
2022-12-01T01:16:07.515Z,96747.09
2022-12-01T01:17:09.135Z,96749.75
2022-12-01T01:18:12.125Z,96750.09
2022-12-01T01:19:13.785Z,96753.22
2022-12-01T01:20:15.446Z,96751.19
2022-12-01T01:21:20.993Z,96745.69
2022-12-01T01:22:22.605Z,96741.78
2022-12-01T01:23:24.164Z,96743.19
2022-12-01T01:24:25.727Z,96748.50
2022-12-01T01:25:27.385Z,96746.78
2022-12-01T01:26:31.476Z,96745.22
2022-12-01T01:27:34.778Z,96739.09
2022-12-01T01:28:36.543Z,96737.38
2022-12-01T01:29:38.213Z,96735.63
2022-12-01T01:30:40.202Z,96743.94
2022-12-01T01:31:41.815Z,96737.03
2022-12-01T01:32:43.484Z,96738.28
2022-12-01T01:33:45.233Z,96735.31
2022-12-01T01:34:46.776Z,96736.09
2022-12-01T01:35:48.298Z,96741.28
2022-12-01T01:36:50.242Z,96732.03
2022-12-01T01:37:51.934Z,96733.91
2022-12-01T01:38:54.575Z,96724.78
2022-12-01T01:39:56.066Z,96725.28
2022-12-01T01:40:57.735Z,96723.56
2022-12-01T01:41:59.328Z,96725.91
2022-12-01T01:43:00.882Z,96719.78
2022-12-01T01:44:03.245Z,96716.03
2022-12-01T01:45:07.543Z,96720.75
2022-12-01T01:46:17.892Z,96718.56
2022-12-01T01:47:26.917Z,96713.56
2022-12-01T01:48:28.525Z,96715.44
2022-12-01T01:49:30.052Z,96712.13
2022-12-01T01:50:32.202Z,96705.69
2022-12-01T01:51:40.772Z,96704.59
2022-12-01T01:52:46.146Z,96702.09
2022-12-01T01:53:49.197Z,96698.00
2022-12-01T01:54:54.378Z,96686.06
2022-12-01T01:55:55.984Z,96691.25
2022-12-01T01:57:00.207Z,96689.69
2022-12-01T01:58:09.895Z,96690.91
2022-12-01T01:59:14.886Z,96696.91
2022-12-01T02:00:19.052Z,96698.47
2022-12-01T02:01:20.901Z,96692.66
2022-12-01T02:02:22.911Z,96692.03
2022-12-01T02:03:26.160Z,96689.22
2022-12-01T02:04:29.299Z,96691.25
2022-12-01T02:05:33.973Z,96681.66
2022-12-01T02:06:35.668Z,96679.00
2022-12-01T02:07:39.326Z,96677.25
2022-12-01T02:08:40.886Z,96674.13
2022-12-01T02:09:42.395Z,96679.13
2022-12-01T02:10:58.864Z,96681.03
2022-12-01T02:12:20.317Z,96695.63
2022-12-01T02:13:33.589Z,96694.66
2022-12-01T02:14:59.967Z,96700.50
2022-12-01T02:16:27.211Z,96691.38
2022-12-01T02:17:44.178Z,96686.66
2022-12-01T02:19:07.139Z,96691.56
2022-12-01T02:20:17.611Z,96694.22
2022-12-01T02:21:25.085Z,96698.00
2022-12-01T02:22:48.269Z,96695.03
2022-12-01T02:24:21.175Z,96697.84
2022-12-01T02:25:37.593Z,96703.66
2022-12-01T02:26:59.544Z,96694.41
2022-12-01T02:28:13.357Z,96688.59
2022-12-01T02:29:48.387Z,96684.03
2022-12-01T02:31:35.903Z,96689.84
2022-12-01T02:33:02.647Z,96679.94
2022-12-01T02:34:21.809Z,96676.97
2022-12-01T02:35:30.659Z,96682.44
2022-12-01T02:36:43.446Z,96690.63
2022-12-01T02:37:51.104Z,96691.13
2022-12-01T02:38:59.379Z,96687.97
2022-12-01T02:40:16.868Z,96681.06
2022-12-01T02:41:27.646Z,96675.13
2022-12-01T02:42:50.501Z,96673.06
2022-12-01T02:44:16.365Z,96672.13
2022-12-01T02:45:29.234Z,96676.66
2022-12-01T02:46:33.260Z,96679.00
2022-12-01T02:47:37.714Z,96681.38
2022-12-01T02:48:43.061Z,96679.81
2022-12-01T02:49:50.267Z,96676.19
2022-12-01T02:50:54.793Z,96669.09
2022-12-01T02:51:58.554Z,96677.25
2022-12-01T02:53:03.134Z,96673.97
2022-12-01T02:54:05.955Z,96668.31
2022-12-01T02:55:07.916Z,96673.50
2022-12-01T02:56:16.114Z,96673.03
2022-12-01T02:57:17.769Z,96676.50
2022-12-01T02:58:19.835Z,96671.78
2022-12-01T02:59:21.406Z,96682.00
2022-12-01T03:00:23.222Z,96675.91
2022-12-01T03:01:39.766Z,96670.56
2022-12-01T03:03:08.022Z,96669.75
2022-12-01T03:04:15.645Z,96663.47
2022-12-01T03:05:50.218Z,96669.63
2022-12-01T03:06:51.691Z,96676.53
2022-12-01T03:08:16.013Z,96680.56
2022-12-01T03:09:35.463Z,96686.19
2022-12-01T03:10:56.430Z,96685.84
2022-12-01T03:12:20.829Z,96691.03
2022-12-01T03:13:37.540Z,96697.00
2022-12-01T03:14:58.863Z,96678.50
2022-12-01T03:16:08.634Z,96680.53
2022-12-01T03:17:17.012Z,96681.91
2022-12-01T03:18:25.637Z,96678.78
2022-12-01T03:19:37.151Z,96665.59
2022-12-01T03:20:57.482Z,96674.19
2022-12-01T03:22:05.702Z,96669.66
2022-12-01T03:23:15.215Z,96676.78
2022-12-01T03:24:24.053Z,96675.03
2022-12-01T03:25:28.355Z,96668.00
2022-12-01T03:26:32.798Z,96668.28
2022-12-01T03:27:44.173Z,96661.69
2022-12-01T03:29:02.213Z,96662.50
2022-12-01T03:30:04.633Z,96662.03
2022-12-01T03:31:09.365Z,96665.03
2022-12-01T03:32:33.863Z,96659.06
2022-12-01T03:33:41.056Z,96666.31
2022-12-01T03:34:49.916Z,96660.34
2022-12-01T03:35:58.787Z,96664.41
2022-12-01T03:37:23.199Z,96663.91
2022-12-01T03:38:26.780Z,96658.56
2022-12-01T03:39:34.935Z,96665.63
2022-12-01T03:40:40.442Z,96663.75
2022-12-01T03:41:50.602Z,96673.16
2022-12-01T03:42:59.634Z,96674.13
2022-12-01T03:44:11.336Z,96665.03
2022-12-01T03:45:40.143Z,96661.75
2022-12-01T03:46:53.993Z,96659.72
2022-12-01T03:47:56.210Z,96663.94
2022-12-01T03:48:57.867Z,96660.19
2022-12-01T03:50:00.772Z,96656.59
2022-12-01T03:51:18.296Z,96653.16
2022-12-01T03:52:19.891Z,96657.84
2022-12-01T03:53:31.730Z,96644.53
2022-12-01T03:54:39.487Z,96655.34
2022-12-01T03:55:47.015Z,96646.25
2022-12-01T03:56:57.195Z,96648.13
2022-12-01T03:58:05.853Z,96645.94
2022-12-01T03:59:10.068Z,96649.84
2022-12-01T04:00:13.670Z,96642.94
2022-12-01T04:01:15.387Z,96646.25
2022-12-01T04:02:18.209Z,96649.25
2022-12-01T04:03:23.033Z,96655.97
2022-12-01T04:04:24.660Z,96654.22
2022-12-01T04:05:27.018Z,96654.38
2022-12-01T04:06:28.554Z,96651.06
2022-12-01T04:07:30.219Z,96652.94
2022-12-01T04:08:33.780Z,96655.91
2022-12-01T04:09:35.409Z,96660.00
2022-12-01T04:10:36.990Z,96653.72
2022-12-01T04:11:57.114Z,96654.31
2022-12-01T04:13:01.294Z,96659.00
2022-12-01T04:14:02.813Z,96658.06
2022-12-01T04:15:10.272Z,96664.03
2022-12-01T04:16:11.816Z,96664.97
2022-12-01T04:17:13.397Z,96661.53
2022-12-01T04:18:14.969Z,96653.53
2022-12-01T04:19:16.571Z,96660.78
2022-12-01T04:20:19.224Z,96659.81
2022-12-01T04:21:20.748Z,96648.84
2022-12-01T04:22:22.522Z,96657.75
2022-12-01T04:23:42.762Z,96657.41
2022-12-01T04:24:44.685Z,96654.88
2022-12-01T04:25:46.211Z,96656.59
2022-12-01T04:26:47.980Z,96663.50
2022-12-01T04:27:49.563Z,96663.97
2022-12-01T04:28:51.336Z,96659.41
2022-12-01T04:29:52.845Z,96660.50
2022-12-01T04:30:54.561Z,96663.97
2022-12-01T04:31:56.105Z,96663.34
2022-12-01T04:32:57.781Z,96668.06
2022-12-01T04:34:00.094Z,96660.84
2022-12-01T04:35:01.650Z,96661.50
2022-12-01T04:36:03.191Z,96657.28
2022-12-01T04:37:06.199Z,96659.84
2022-12-01T04:38:07.948Z,96661.25
2022-12-01T04:39:09.482Z,96659.84
2022-12-01T04:40:11.481Z,96657.97
2022-12-01T04:41:14.783Z,96665.63
2022-12-01T04:42:16.341Z,96666.41
2022-12-01T04:43:17.925Z,96666.06
2022-12-01T04:44:19.550Z,96668.25
2022-12-01T04:45:21.149Z,96666.19
2022-12-01T04:46:24.147Z,96666.03
2022-12-01T04:47:25.739Z,96664.81
2022-12-01T04:48:27.259Z,96672.66
2022-12-01T04:49:29.485Z,96668.28
2022-12-01T04:50:31.142Z,96663.09
2022-12-01T04:51:32.917Z,96667.84
2022-12-01T04:52:37.255Z,96666.56
2022-12-01T04:53:38.871Z,96673.81
2022-12-01T04:54:40.546Z,96666.91
2022-12-01T04:55:42.134Z,96672.88
2022-12-01T04:56:43.993Z,96665.81
2022-12-01T04:57:45.587Z,96666.25
2022-12-01T04:58:47.362Z,96661.06
2022-12-01T04:59:48.978Z,96669.22
2022-12-01T05:00:50.841Z,96653.25
2022-12-01T05:01:52.500Z,96651.03
2022-12-01T05:02:54.278Z,96654.66
2022-12-01T05:03:55.879Z,96651.38
2022-12-01T05:04:57.388Z,96650.31
2022-12-01T05:06:06.864Z,96650.00
2022-12-01T05:07:08.613Z,96653.13
2022-12-01T05:08:10.706Z,96662.22
2022-12-01T05:09:17.416Z,96654.22
2022-12-01T05:10:19.515Z,96649.72
2022-12-01T05:11:21.820Z,96650.16
2022-12-01T05:12:23.437Z,96648.91
2022-12-01T05:13:25.064Z,96653.00
2022-12-01T05:14:26.661Z,96647.03
2022-12-01T05:15:28.495Z,96639.22
2022-12-01T05:16:32.788Z,96645.00
2022-12-01T05:17:37.063Z,96636.06
2022-12-01T05:18:39.311Z,96647.03
2022-12-01T05:19:59.325Z,96636.22
2022-12-01T05:21:01.360Z,96645.16
2022-12-01T05:22:02.904Z,96647.63
2022-12-01T05:23:06.068Z,96650.44
2022-12-01T05:24:08.852Z,96650.31
2022-12-01T05:25:10.407Z,96647.81
2022-12-01T05:26:12.186Z,96645.63
2022-12-01T05:27:13.699Z,96652.34
2022-12-01T05:28:15.258Z,96646.06
2022-12-01T05:29:17.181Z,96649.03
2022-12-01T05:30:18.735Z,96638.38
2022-12-01T05:31:20.355Z,96641.66
2022-12-01T05:32:21.970Z,96646.34
2022-12-01T05:33:25.202Z,96642.28
2022-12-01T05:34:26.736Z,96646.53
2022-12-01T05:35:28.388Z,96647.31
2022-12-01T05:36:30.041Z,96650.13
2022-12-01T05:37:34.545Z,96640.22
2022-12-01T05:38:36.185Z,96641.47
2022-12-01T05:39:37.726Z,96643.72
2022-12-01T05:40:39.344Z,96645.69
2022-12-01T05:41:40.908Z,96647.63
2022-12-01T05:42:42.498Z,96655.63
2022-12-01T05:43:44.332Z,96658.50
2022-12-01T05:44:45.839Z,96649.72
2022-12-01T05:45:47.474Z,96654.78
2022-12-01T05:46:49.065Z,96649.44
2022-12-01T05:47:50.665Z,96644.25
2022-12-01T05:48:52.238Z,96645.50
2022-12-01T05:49:53.831Z,96651.50
2022-12-01T05:50:55.433Z,96651.28
2022-12-01T05:51:56.997Z,96647.44
2022-12-01T05:52:58.532Z,96656.72
2022-12-01T05:54:00.408Z,96650.47
2022-12-01T05:55:03.951Z,96651.22
2022-12-01T05:56:06.945Z,96647.47
2022-12-01T05:57:08.563Z,96640.88
2022-12-01T05:58:10.601Z,96641.22
2022-12-01T05:59:12.146Z,96640.22
2022-12-01T06:00:15.444Z,96641.94
2022-12-01T06:01:17.526Z,96642.13
2022-12-01T06:02:19.171Z,96635.69
2022-12-01T06:03:20.717Z,96641.47
2022-12-01T06:04:22.271Z,96646.34
2022-12-01T06:05:24.051Z,96649.03
2022-12-01T06:06:25.664Z,96648.38
2022-12-01T06:07:27.330Z,96649.94
2022-12-01T06:08:28.948Z,96655.91
2022-12-01T06:09:30.495Z,96647.13
2022-12-01T06:10:32.044Z,96652.66
2022-12-01T06:11:33.608Z,96659.72
2022-12-01T06:12:35.291Z,96659.06
2022-12-01T06:13:36.830Z,96655.63
2022-12-01T06:14:38.683Z,96649.66
2022-12-01T06:15:40.315Z,96651.84
2022-12-01T06:16:41.915Z,96654.19
2022-12-01T06:17:43.561Z,96648.06
2022-12-01T06:18:45.142Z,96649.03
2022-12-01T06:19:48.267Z,96646.97
2022-12-01T06:20:50.033Z,96652.78
2022-12-01T06:21:51.535Z,96649.94
2022-12-01T06:22:53.187Z,96645.41
2022-12-01T06:23:54.786Z,96649.66
2022-12-01T06:24:56.502Z,96650.91
2022-12-01T06:25:58.691Z,96660.66
2022-12-01T06:27:00.313Z,96653.13
2022-12-01T06:28:02.474Z,96652.47
2022-12-01T06:29:04.062Z,96656.25
2022-12-01T06:30:06.590Z,96651.06
2022-12-01T06:31:08.171Z,96656.25
2022-12-01T06:32:09.967Z,96660.97
2022-12-01T06:33:11.724Z,96661.41
2022-12-01T06:34:13.495Z,96667.72
2022-12-01T06:35:15.167Z,96660.47
2022-12-01T06:36:16.755Z,96665.97
2022-12-01T06:37:18.291Z,96668.47
2022-12-01T06:38:19.845Z,96668.28
2022-12-01T06:39:21.414Z,96668.13
2022-12-01T06:40:23.303Z,96661.81
2022-12-01T06:41:24.829Z,96660.88
2022-12-01T06:42:29.978Z,96654.75
2022-12-01T06:43:31.931Z,96656.44
2022-12-01T06:44:33.470Z,96664.88
2022-12-01T06:45:35.984Z,96664.94
2022-12-01T06:46:38.011Z,96667.38
2022-12-01T06:47:39.916Z,96675.06
2022-12-01T06:48:41.543Z,96667.41
2022-12-01T06:49:44.049Z,96667.88
2022-12-01T06:50:45.592Z,96667.56
2022-12-01T06:51:47.235Z,96664.06
2022-12-01T06:52:48.828Z,96665.66
2022-12-01T06:53:54.990Z,96660.94
2022-12-01T06:54:58.024Z,96665.47
2022-12-01T06:56:04.413Z,96660.44
2022-12-01T06:57:06.539Z,96658.38
2022-12-01T06:58:08.325Z,96662.44
2022-12-01T06:59:10.244Z,96661.78
2022-12-01T07:00:13.583Z,96668.69
2022-12-01T07:01:16.736Z,96662.47
2022-12-01T07:02:18.388Z,96681.00
2022-12-01T07:03:20.106Z,96672.81
2022-12-01T07:04:21.710Z,96669.06
2022-12-01T07:05:23.478Z,96668.25
2022-12-01T07:06:25.008Z,96670.03
2022-12-01T07:07:26.714Z,96674.13
2022-12-01T07:08:29.714Z,96666.28
2022-12-01T07:09:31.275Z,96676.03
2022-12-01T07:10:32.982Z,96679.03
2022-12-01T07:11:36.517Z,96681.22
2022-12-01T07:12:38.653Z,96676.66
2022-12-01T07:13:47.122Z,96671.31
2022-12-01T07:14:48.681Z,96675.72
2022-12-01T07:15:50.218Z,96662.38
2022-12-01T07:16:51.906Z,96657.53
2022-12-01T07:17:53.504Z,96656.56
2022-12-01T07:18:55.063Z,96653.28
2022-12-01T07:19:56.807Z,96653.13
2022-12-01T07:21:02.951Z,96660.34
2022-12-01T07:22:04.680Z,96656.25
2022-12-01T07:23:06.315Z,96650.91
2022-12-01T07:24:08.232Z,96657.03
2022-12-01T07:25:09.952Z,96660.19
2022-12-01T07:26:17.233Z,96659.38
2022-12-01T07:27:18.781Z,96665.66
2022-12-01T07:28:20.324Z,96664.88
2022-12-01T07:29:21.847Z,96662.53
2022-12-01T07:30:28.256Z,96667.22
2022-12-01T07:31:30.183Z,96674.59
2022-12-01T07:32:32.186Z,96662.50
2022-12-01T07:33:33.998Z,96671.31
2022-12-01T07:34:35.558Z,96668.94
2022-12-01T07:35:37.114Z,96679.63
2022-12-01T07:36:38.826Z,96675.72
2022-12-01T07:37:40.381Z,96676.94
2022-12-01T07:38:42.129Z,96686.66
2022-12-01T07:39:43.647Z,96676.31
2022-12-01T07:40:45.166Z,96679.41
2022-12-01T07:41:46.715Z,96676.44
2022-12-01T07:42:48.321Z,96681.16
2022-12-01T07:43:50.074Z,96678.94
2022-12-01T07:44:51.652Z,96671.41
2022-12-01T07:45:53.223Z,96669.84
2022-12-01T07:46:55.300Z,96670.75
2022-12-01T07:47:56.916Z,96672.66
2022-12-01T07:48:59.467Z,96670.91
2022-12-01T07:50:00.980Z,96669.19
2022-12-01T07:51:02.769Z,96671.94
2022-12-01T07:52:04.633Z,96667.25
2022-12-01T07:53:06.171Z,96668.34
2022-12-01T07:54:08.315Z,96665.81
2022-12-01T07:55:09.888Z,96671.16
2022-12-01T07:56:12.038Z,96679.34
2022-12-01T07:57:14.812Z,96673.22
2022-12-01T07:58:17.247Z,96675.28
2022-12-01T07:59:18.754Z,96689.06
2022-12-01T08:00:20.715Z,96681.72
2022-12-01T08:01:25.059Z,96685.19
2022-12-01T08:02:26.696Z,96689.00
2022-12-01T08:03:28.266Z,96689.81
2022-12-01T08:04:29.904Z,96688.25
2022-12-01T08:05:31.455Z,96687.59
2022-12-01T08:06:33.087Z,96692.59
2022-12-01T08:07:34.668Z,96690.72
2022-12-01T08:08:38.756Z,96681.44
2022-12-01T08:09:40.326Z,96692.09
2022-12-01T08:10:43.305Z,96692.22
2022-12-01T08:11:44.909Z,96699.13
2022-12-01T08:12:47.107Z,96693.66
2022-12-01T08:13:49.654Z,96698.47
2022-12-01T08:14:51.320Z,96698.22
2022-12-01T08:15:52.891Z,96701.53
2022-12-01T08:16:54.422Z,96705.78
2022-12-01T08:17:55.965Z,96703.44
2022-12-01T08:18:57.608Z,96689.63
2022-12-01T08:19:59.162Z,96691.50
2022-12-01T08:21:00.715Z,96683.94
2022-12-01T08:22:02.271Z,96690.06
2022-12-01T08:23:04.232Z,96689.28
2022-12-01T08:24:06.213Z,96691.00
2022-12-01T08:25:08.199Z,96683.72
2022-12-01T08:26:14.058Z,96685.31
2022-12-01T08:27:15.599Z,96680.13
2022-12-01T08:28:17.128Z,96679.47
2022-12-01T08:29:20.438Z,96688.28
2022-12-01T08:30:23.082Z,96687.78
2022-12-01T08:31:28.511Z,96693.03
2022-12-01T08:32:30.164Z,96693.66
2022-12-01T08:33:31.716Z,96688.44
2022-12-01T08:34:37.227Z,96695.97
2022-12-01T08:35:38.843Z,96691.25
2022-12-01T08:36:40.363Z,96695.94
2022-12-01T08:37:41.874Z,96696.44
2022-12-01T08:38:49.098Z,96699.38
2022-12-01T08:39:50.811Z,96700.28
2022-12-01T08:40:52.588Z,96697.63
2022-12-01T08:41:54.095Z,96690.56
2022-12-01T08:42:55.647Z,96691.28
2022-12-01T08:43:59.779Z,96695.38
2022-12-01T08:45:02.175Z,96686.56
2022-12-01T08:46:03.787Z,96688.63
2022-12-01T08:47:05.370Z,96686.38
2022-12-01T08:48:06.925Z,96696.31
2022-12-01T08:49:08.505Z,96692.53
2022-12-01T08:50:11.155Z,96685.09
2022-12-01T08:51:15.751Z,96700.34
2022-12-01T08:52:17.291Z,96696.44
2022-12-01T08:53:18.847Z,96690.00
2022-12-01T08:54:20.370Z,96685.09
2022-12-01T08:55:22.397Z,96689.22
2022-12-01T08:56:34.482Z,96681.03
2022-12-01T08:57:36.086Z,96684.84
2022-12-01T08:58:37.749Z,96687.78
2022-12-01T08:59:39.479Z,96680.53
2022-12-01T09:00:41.065Z,96687.47
2022-12-01T09:01:54.654Z,96689.81
2022-12-01T09:02:56.260Z,96686.81
2022-12-01T09:04:06.026Z,96682.72
2022-12-01T09:05:08.394Z,96679.13
2022-12-01T09:06:19.288Z,96675.31
2022-12-01T09:07:26.078Z,96678.19
2022-12-01T09:08:31.418Z,96687.00
2022-12-01T09:09:35.439Z,96678.38
2022-12-01T09:10:37.022Z,96680.13
2022-12-01T09:11:39.940Z,96674.16
2022-12-01T09:12:41.550Z,96682.34
2022-12-01T09:13:44.296Z,96681.69
2022-12-01T09:14:48.300Z,96687.53
2022-12-01T09:16:01.559Z,96685.75
2022-12-01T09:17:03.178Z,96683.53
2022-12-01T09:18:04.983Z,96686.88
2022-12-01T09:19:06.559Z,96681.34
2022-12-01T09:20:09.459Z,96680.84
2022-12-01T09:21:13.165Z,96674.28
2022-12-01T09:22:14.692Z,96670.34
2022-12-01T09:23:16.254Z,96674.78
2022-12-01T09:24:18.043Z,96674.16
2022-12-01T09:25:19.597Z,96671.94
2022-12-01T09:26:22.134Z,96673.22
2022-12-01T09:27:23.648Z,96674.00
2022-12-01T09:28:25.189Z,96681.03
2022-12-01T09:29:26.913Z,96674.59
2022-12-01T09:30:28.473Z,96679.94
2022-12-01T09:31:30.440Z,96677.94
2022-12-01T09:32:32.024Z,96683.28
2022-12-01T09:33:34.191Z,96679.50
2022-12-01T09:34:35.718Z,96685.63
2022-12-01T09:35:37.503Z,96678.06
2022-12-01T09:36:39.363Z,96677.63
2022-12-01T09:37:40.964Z,96678.25
2022-12-01T09:38:42.541Z,96672.13
2022-12-01T09:39:44.138Z,96667.56
2022-12-01T09:40:46.313Z,96667.25
2022-12-01T09:42:16.373Z,96671.13
2022-12-01T09:43:22.363Z,96672.84
2022-12-01T09:44:45.794Z,96673.31
2022-12-01T09:45:52.946Z,96674.88
2022-12-01T09:47:07.095Z,96674.41
2022-12-01T09:48:21.142Z,96672.53
2022-12-01T09:49:26.232Z,96656.63
2022-12-01T09:50:30.062Z,96660.06
2022-12-01T09:51:36.293Z,96663.09
2022-12-01T09:52:53.200Z,96671.91
2022-12-01T09:53:59.449Z,96678.47
2022-12-01T09:55:01.339Z,96671.38
2022-12-01T09:56:10.049Z,96680.03
2022-12-01T09:57:25.983Z,96682.53
2022-12-01T09:58:30.913Z,96681.44
2022-12-01T09:59:37.711Z,96679.72
2022-12-01T10:00:42.835Z,96675.91
2022-12-01T10:01:48.229Z,96669.75
2022-12-01T10:03:27.494Z,96675.22
2022-12-01T10:04:38.084Z,96676.03
2022-12-01T10:06:24.546Z,96668.31
2022-12-01T10:07:23.064Z,96664.53
2022-12-01T10:08:29.284Z,96662.19
2022-12-01T10:09:52.035Z,96659.97
2022-12-01T10:10:58.153Z,96663.13
2022-12-01T10:12:14.973Z,96666.44
2022-12-01T10:13:19.725Z,96662.34
2022-12-01T10:14:22.171Z,96667.50
2022-12-01T10:15:56.141Z,96665.59
2022-12-01T10:17:17.792Z,96659.91
2022-12-01T10:18:36.319Z,96662.34
2022-12-01T10:20:15.518Z,96664.53
2022-12-01T10:21:50.978Z,96650.84
2022-12-01T10:23:17.305Z,96650.69
2022-12-01T10:24:21.876Z,96657.00
2022-12-01T10:25:24.566Z,96655.03
2022-12-01T10:26:40.458Z,96653.72
2022-12-01T10:28:03.988Z,96660.00
2022-12-01T10:29:08.351Z,96660.19
2022-12-01T10:30:15.588Z,96661.81
2022-12-01T10:31:24.954Z,96647.00
2022-12-01T10:32:36.291Z,96650.34
2022-12-01T10:33:51.573Z,96650.34
2022-12-01T10:34:53.155Z,96655.03
2022-12-01T10:35:54.878Z,96654.38
2022-12-01T10:36:57.986Z,96655.16
2022-12-01T10:38:04.096Z,96651.78
2022-12-01T10:39:07.425Z,96652.44
2022-12-01T10:40:13.698Z,96654.44
2022-12-01T10:41:17.941Z,96660.25
2022-12-01T10:42:19.464Z,96655.81
2022-12-01T10:43:31.724Z,96649.00
2022-12-01T10:44:34.957Z,96648.13
2022-12-01T10:45:41.818Z,96651.09
2022-12-01T10:47:17.198Z,96648.69
2022-12-01T10:48:23.081Z,96650.31
2022-12-01T10:49:37.251Z,96651.34
2022-12-01T10:50:39.295Z,96652.38
2022-12-01T10:51:55.897Z,96651.72
2022-12-01T10:52:57.475Z,96645.59
2022-12-01T10:54:06.466Z,96644.28
2022-12-01T10:55:23.249Z,96638.25
2022-12-01T10:56:25.202Z,96641.50
2022-12-01T10:57:29.491Z,96649.22
2022-12-01T10:58:34.111Z,96646.22
2022-12-01T10:59:44.034Z,96654.69
2022-12-01T11:01:05.873Z,96639.19
2022-12-01T11:02:17.859Z,96644.22
2022-12-01T11:03:22.986Z,96637.09
2022-12-01T11:04:29.753Z,96633.72
2022-12-01T11:05:38.908Z,96635.28
2022-12-01T11:06:40.540Z,96631.47
2022-12-01T11:07:45.431Z,96636.81
2022-12-01T11:08:59.046Z,96634.47
2022-12-01T11:10:15.583Z,96633.88
2022-12-01T11:11:24.181Z,96633.09
2022-12-01T11:12:26.021Z,96636.47
2022-12-01T11:13:32.508Z,96630.75
2022-12-01T11:14:43.515Z,96623.19
2022-12-01T11:15:54.301Z,96630.19
2022-12-01T11:16:55.921Z,96630.31
2022-12-01T11:18:32.537Z,96643.91
2022-12-01T11:19:34.986Z,96634.50
2022-12-01T11:20:39.459Z,96640.31
2022-12-01T11:21:52.857Z,96632.53
2022-12-01T11:23:21.050Z,96635.47
2022-12-01T11:25:02.765Z,96630.53
2022-12-01T11:26:15.297Z,96626.91
2022-12-01T11:27:20.052Z,96635.91
2022-12-01T11:28:21.966Z,96631.09
2022-12-01T11:29:32.072Z,96636.31
2022-12-01T11:30:34.040Z,96629.53
2022-12-01T11:31:47.923Z,96630.31
2022-12-01T11:32:55.314Z,96631.88
2022-12-01T11:33:57.020Z,96634.97
2022-12-01T11:35:14.637Z,96632.50
2022-12-01T11:36:47.213Z,96636.09
2022-12-01T11:38:27.569Z,96636.50
2022-12-01T11:39:28.101Z,96633.84
2022-12-01T11:40:32.569Z,96638.75
2022-12-01T11:41:40.757Z,96635.41
2022-12-01T11:42:49.226Z,96645.47
2022-12-01T11:44:01.084Z,96633.59
2022-12-01T11:45:24.971Z,96642.63
2022-12-01T11:46:32.279Z,96643.03
2022-12-01T11:47:33.985Z,96641.34
2022-12-01T11:48:36.427Z,96638.97
2022-12-01T11:49:46.898Z,96644.34
2022-12-01T11:51:08.364Z,96642.09
2022-12-01T11:52:27.261Z,96642.88
2022-12-01T11:53:39.144Z,96642.25
2022-12-01T11:54:55.769Z,96648.50
2022-12-01T11:56:15.850Z,96650.59
2022-12-01T11:57:33.796Z,96651.69
2022-12-01T11:58:36.043Z,96652.56
2022-12-01T11:59:37.623Z,96648.78
2022-12-01T12:00:56.172Z,96651.88
2022-12-01T12:02:10.096Z,96652.69
2022-12-01T12:03:33.553Z,96650.78
2022-12-01T12:04:47.931Z,96641.19
2022-12-01T12:06:38.885Z,96644.06
2022-12-01T12:07:47.798Z,96644.06
2022-12-01T12:08:52.423Z,96641.28
2022-12-01T12:10:14.523Z,96643.16
2022-12-01T12:11:35.615Z,96648.19
2022-12-01T12:12:39.981Z,96649.03
2022-12-01T12:13:56.573Z,96648.78
2022-12-01T12:15:09.974Z,96651.56
2022-12-01T12:16:45.437Z,96652.03
2022-12-01T12:18:05.543Z,96648.91
2022-12-01T12:19:13.098Z,96654.75
2022-12-01T12:20:20.743Z,96655.41
2022-12-01T12:21:28.327Z,96653.97
2022-12-01T12:23:07.879Z,96648.50
2022-12-01T12:24:33.567Z,96660.75
2022-12-01T12:26:03.754Z,96659.50
2022-12-01T12:27:25.787Z,96658.28
2022-12-01T12:28:45.546Z,96660.97
2022-12-01T12:30:20.443Z,96661.16
2022-12-01T12:31:46.376Z,96654.88
2022-12-01T12:33:18.710Z,96666.88
2022-12-01T12:34:28.970Z,96672.84
2022-12-01T12:36:09.310Z,96657.75
2022-12-01T12:37:40.937Z,96665.28
2022-12-01T12:39:24.381Z,96663.09
2022-12-01T12:40:37.847Z,96674.56
2022-12-01T12:41:52.133Z,96667.13
2022-12-01T12:42:56.368Z,96667.78
2022-12-01T12:44:48.762Z,96673.13
2022-12-01T12:46:07.688Z,96668.69
2022-12-01T12:47:30.980Z,96674.31
2022-12-01T12:48:38.745Z,96674.00
2022-12-01T12:50:14.330Z,96683.16
2022-12-01T12:51:22.294Z,96669.59
2022-12-01T12:52:29.322Z,96674.19
2022-12-01T12:53:42.237Z,96668.38
2022-12-01T12:54:53.299Z,96673.84
2022-12-01T12:56:00.312Z,96678.75
2022-12-01T12:57:35.320Z,96680.97
2022-12-01T12:58:42.258Z,96675.59
2022-12-01T13:00:06.691Z,96675.31
2022-12-01T13:01:17.544Z,96684.31
2022-12-01T13:02:42.635Z,96679.75